Wetterdaten: Woche 27.03.06 - 02.04.06 (KW13)
Datum Zeit Temp. A Sch. Temp. A Son. Feuchte A. Luftdruck Regen Wind Richtung Sonnenschein Helligkeit Taupunkt Windchill
27.03.2006 00:00 11,4 C 11,8 C 90 % 1010 hPa 0,0 l/m 0,0 m/s (0 Bft) N 0,00 h 0 lux 9,7 C 11,4 C
27.03.2006 01:00 11,0 C 11,4 C 91 % 1010 hPa 0,4 l/m 0,0 m/s (0 Bft) N 0,00 h 0 lux 9,7 C 11,0 C
27.03.2006 02:00 10,5 C 10,9 C 92 % 1009 hPa 0,4 l/m 0,0 m/s (0 Bft) N 0,00 h 0 lux 9,3 C 10,5 C
27.03.2006 03:00 10,4 C 10,6 C 94 % 1008 hPa 0,0 l/m 0,2 m/s (0 Bft) O-NO 0,00 h 0 lux 9,4 C 10,4 C
27.03.2006 04:00 9,5 C 10,0 C 95 % 1007 hPa 0,0 l/m 0,0 m/s (0 Bft) N 0,00 h 0 lux 8,7 C 9,5 C
27.03.2006 05:00 9,3 C 9,7 C 95 % 1006 hPa 0,0 l/m 0,0 m/s (0 Bft) N 0,00 h 0 lux 8,6 C 9,3 C
27.03.2006 06:00 9,1 C 9,5 C 95 % 1006 hPa 2,2 l/m 0,1 m/s (0 Bft) O-NO 0,00 h 0 lux 8,4 C 9,1 C
27.03.2006 07:00 9,5 C 9,7 C 95 % 1006 hPa 0,4 l/m 0,1 m/s (0 Bft) N-NO 0,00 h 0 lux 8,7 C 9,5 C
27.03.2006 08:00 10,3 C 10,2 C 95 % 1006 hPa 0,0 l/m 0,1 m/s (0 Bft) SO 0,00 h 0 lux 9,6 C 10,3 C
27.03.2006 09:00 12,1 C 11,6 C 95 % 1006 hPa 0,0 l/m 0,2 m/s (0 Bft) O 0,00 h 0 lux 11,3 C 12,1 C
27.03.2006 10:00 13,0 C 12,5 C 93 % 1007 hPa 0,0 l/m 0,1 m/s (0 Bft) O-SO 0,00 h 0 lux 11,9 C 13,0 C
27.03.2006 11:00 14,7 C 16,5 C 78 % 1007 hPa 0,0 l/m 3,7 m/s (3 Bft) SW 0,00 h 0 lux 10,8 C 11,4 C
27.03.2006 12:00 15,0 C 16,2 C 71 % 1007 hPa 0,0 l/m 5,6 m/s (4 Bft) SW 0,00 h 0 lux 9,6 C 9,8 C
27.03.2006 13:00 16,8 C 20,0 C 54 % 1006 hPa 0,4 l/m 6,8 m/s (4 Bft) W-SW 0,00 h 0 lux 7,3 C 11,1 C
27.03.2006 14:00 15,8 C 16,9 C 52 % 1007 hPa 0,0 l/m 8,2 m/s (5 Bft) W-SW 0,00 h 0 lux 5,9 C 9,0 C
27.03.2006 15:00 13,8 C 14,4 C 64 % 1007 hPa 0,0 l/m 6,9 m/s (4 Bft) W-SW 0,00 h 0 lux 7,2 C 7,6 C
27.03.2006 16:00 14,4 C 14,7 C 64 % 1007 hPa 0,0 l/m 4,6 m/s (3 Bft) SW 0,00 h 0 lux 7,6 C 10,2 C
27.03.2006 17:00 15,7 C 19,1 C 50 % 1005 hPa 0,0 l/m 5,8 m/s (4 Bft) SW 0,00 h 0 lux 5,4 C 10,7 C
27.03.2006 18:00 14,9 C 17,3 C 53 % 1005 hPa 0,0 l/m 4,1 m/s (3 Bft) S-SW 0,00 h 0 lux 5,3 C 11,2 C
27.03.2006 19:00 14,0 C 15,0 C 59 % 1004 hPa 0,0 l/m 3,6 m/s (3 Bft) S-SW 0,00 h 0 lux 6,1 C 10,7 C
27.03.2006 20:00 13,5 C 14,0 C 63 % 1005 hPa 0,0 l/m 3,3 m/s (2 Bft) W-SW 0,00 h 0 lux 6,5 C 10,6 C
27.03.2006 21:00 12,9 C 13,6 C 65 % 1005 hPa 0,0 l/m 3,4 m/s (2 Bft) SW 0,00 h 0 lux 6,4 C 10,0 C
27.03.2006 22:00 12,2 C 12,8 C 67 % 1006 hPa 0,0 l/m 3,3 m/s (2 Bft) SW 0,00 h 0 lux 6,3 C 9,2 C
27.03.2006 23:00 10,1 C 11,1 C 77 % 1006 hPa 0,0 l/m 0,4 m/s (1 Bft) W-SW 0,00 h 0 lux 6,2 C 9,8 C
28.03.2006 00:00 10,4 C 10,6 C 75 % 1006 hPa 0,0 l/m 1,6 m/s (1 Bft) W 0,00 h 0 lux 6,2 C 9,6 C
28.03.2006 01:00 9,5 C 10,0 C 78 % 1006 hPa 0,0 l/m 0,5 m/s (1 Bft) W-SW 0,00 h 0 lux 5,9 C 9,2 C
28.03.2006 02:00 9,3 C 9,6 C 80 % 1006 hPa 0,0 l/m 2,4 m/s (2 Bft) W-SW 0,00 h 0 lux 6,0 C 7,2 C
28.03.2006 03:00 9,8 C 10,0 C 76 % 1006 hPa 0,0 l/m 2,1 m/s (2 Bft) W-SW 0,00 h 0 lux 5,7 C 8,5 C
28.03.2006 04:00 9,8 C 10,2 C 75 % 1005 hPa 0,0 l/m 1,8 m/s (2 Bft) W-SW 0,00 h 0 lux 5,7 C 8,9 C
28.03.2006 05:00 9,6 C 10,0 C 72 % 1005 hPa 0,0 l/m 3,0 m/s (2 Bft) W-SW 0,00 h 0 lux 4,8 C 6,7 C
28.03.2006 06:00 8,7 C 9,3 C 76 % 1004 hPa 0,0 l/m 2,2 m/s (2 Bft) W-SW 0,00 h 0 lux 4,8 C 7,2 C
28.03.2006 07:00 9,0 C 9,0 C 66 % 1005 hPa 0,0 l/m 4,0 m/s (3 Bft) W-SW 0,00 h 0 lux 2,9 C 4,2 C
28.03.2006 08:00 9,2 C 9,2 C 63 % 1005 hPa 0,0 l/m 4,9 m/s (3 Bft) W-SW 0,00 h 0 lux 2,4 C 3,1 C
28.03.2006 09:00 9,7 C 9,9 C 58 % 1005 hPa 0,0 l/m 6,5 m/s (4 Bft) W-SW 0,00 h 0 lux 1,9 C 2,0 C
28.03.2006 10:00 10,5 C 10,8 C 53 % 1005 hPa 0,0 l/m 7,0 m/s (4 Bft) W-SW 0,00 h 0 lux 1,3 C 2,6 C
28.03.2006 11:00 11,4 C 13,0 C 48 % 1005 hPa 0,0 l/m 8,7 m/s (5 Bft) W-SW 0,00 h 0 lux 0,8 C 2,6 C
28.03.2006 12:00 11,1 C 13,0 C 48 % 1005 hPa 0,0 l/m 8,5 m/s (5 Bft) W-SW 0,00 h 0 lux 0,5 C 2,2 C
28.03.2006 13:00 12,3 C 15,5 C 41 % 1004 hPa 0,0 l/m 8,4 m/s (5 Bft) W-SW 0,00 h 0 lux -0,7 C 3,9 C
28.03.2006 14:00 13,5 C 17,7 C 34 % 1004 hPa 0,0 l/m 8,7 m/s (5 Bft) W-SW 0,00 h 0 lux -2,2 C 5,4 C
28.03.2006 15:00 12,8 C 15,9 C 33 % 1003 hPa 0,0 l/m 7,2 m/s (4 Bft) W-SW 0,00 h 0 lux -2,9 C 5,5 C
28.03.2006 16:00 12,9 C 14,1 C 35 % 1003 hPa 0,0 l/m 6,3 m/s (4 Bft) W-SW 0,00 h 0 lux -2,3 C 6,4 C
28.03.2006 17:00 12,6 C 14,4 C 38 % 1003 hPa 0,0 l/m 6,1 m/s (4 Bft) SW 0,00 h 0 lux -1,4 C 6,2 C
28.03.2006 18:00 11,3 C 12,6 C 43 % 1003 hPa 0,0 l/m 5,5 m/s (3 Bft) W-SW 0,00 h 0 lux -0,7 C 5,2 C
28.03.2006 19:00 10,2 C 11,0 C 47 % 1003 hPa 0,0 l/m 5,7 m/s (4 Bft) W-SW 0,00 h 0 lux -0,6 C 3,7 C
28.03.2006 20:00 8,9 C 9,6 C 56 % 1004 hPa 0,0 l/m 4,1 m/s (3 Bft) W-SW 0,00 h 0 lux 0,6 C 4,1 C
28.03.2006 21:00 8,3 C 9,0 C 65 % 1004 hPa 0,0 l/m 2,0 m/s (2 Bft) W-SW 0,00 h 0 lux 2,0 C 7,3 C
28.03.2006 22:00 7,3 C 8,2 C 79 % 1004 hPa 0,7 l/m 1,5 m/s (1 Bft) W-SW 0,00 h 0 lux 3,8 C 6,6 C
28.03.2006 23:00 6,5 C 7,5 C 83 % 1005 hPa 0,7 l/m 2,4 m/s (2 Bft) W 0,00 h 0 lux 3,8 C 4,7 C
29.03.2006 00:00 6,0 C 7,0 C 84 % 1005 hPa 0,7 l/m 1,8 m/s (2 Bft) W-SW 0,00 h 0 lux 3,5 C 4,8 C
29.03.2006 01:00 5,8 C 6,5 C 85 % 1005 hPa 0,0 l/m 1,4 m/s (1 Bft) W-SW 0,00 h 0 lux 3,5 C 5,0 C
29.03.2006 02:00 6,0 C 6,5 C 84 % 1005 hPa 0,0 l/m 0,9 m/s (1 Bft) SW 0,00 h 0 lux 3,6 C 5,8 C
29.03.2006 03:00 6,0 C 6,6 C 82 % 1005 hPa 0,0 l/m 0,6 m/s (1 Bft) W-SW 0,00 h 0 lux 3,3 C 6,0 C
29.03.2006 04:00 5,7 C 6,5 C 84 % 1005 hPa 0,0 l/m 2,6 m/s (2 Bft) W-SW 0,00 h 0 lux 3,2 C 3,2 C
29.03.2006 05:00 4,8 C 5,3 C 85 % 1005 hPa 0,0 l/m 2,1 m/s (2 Bft) W 0,00 h 0 lux 2,5 C 3,5 C
29.03.2006 06:00 4,8 C 5,0 C 87 % 1006 hPa 0,0 l/m 1,7 m/s (2 Bft) W-SW 0,00 h 0 lux 2,9 C 3,6 C
29.03.2006 07:00 5,4 C 5,5 C 81 % 1006 hPa 0,0 l/m 4,1 m/s (3 Bft) SW 0,00 h 0 lux 2,3 C -0,1 C
29.03.2006 08:00 6,2 C 6,0 C 75 % 1006 hPa 0,0 l/m 3,9 m/s (3 Bft) SW 0,00 h 0 lux 2,1 C 1,1 C
29.03.2006 09:00 7,2 C 7,1 C 69 % 1006 hPa 0,0 l/m 6,4 m/s (4 Bft) SW 0,00 h 0 lux 1,8 C -1,2 C
29.03.2006 10:00 7,4 C 7,7 C 69 % 1007 hPa 0,0 l/m 6,5 m/s (4 Bft) SW 0,00 h 0 lux 1,9 C -1,2 C
29.03.2006 11:00 7,0 C 7,1 C 74 % 1007 hPa 0,0 l/m 5,0 m/s (3 Bft) W-SW 0,00 h 0 lux 2,7 C 0,3 C
29.03.2006 12:00 7,1 C 7,4 C 73 % 1008 hPa 0,4 l/m 6,2 m/s (4 Bft) W-SW 0,00 h 0 lux 2,7 C -1,0 C
29.03.2006 13:00 7,7 C 8,0 C 72 % 1008 hPa 0,0 l/m 5,7 m/s (4 Bft) W 0,00 h 0 lux 2,9 C 0,5 C
29.03.2006 14:00 8,8 C 9,2 C 64 % 1009 hPa 0,4 l/m 5,1 m/s (3 Bft) W 0,00 h 0 lux 2,4 C 2,4 C
29.03.2006 15:00 9,8 C 11,3 C 56 % 1009 hPa 0,0 l/m 8,5 m/s (5 Bft) W 0,00 h 0 lux 1,3 C 0,4 C
29.03.2006 16:00 10,4 C 13,5 C 50 % 1010 hPa 0,0 l/m 7,9 m/s (4 Bft) W 0,00 h 0 lux 0,3 C 1,6 C
29.03.2006 17:00 10,0 C 11,8 C 54 % 1010 hPa 0,0 l/m 6,6 m/s (4 Bft) W 0,00 h 0 lux 1,0 C 2,3 C
29.03.2006 18:00 8,9 C 9,8 C 64 % 1011 hPa 1,4 l/m 4,8 m/s (3 Bft) W-SW 0,00 h 0 lux 2,5 C 3,2 C
29.03.2006 19:00 7,5 C 8,1 C 77 % 1011 hPa 0,0 l/m 3,6 m/s (3 Bft) W 0,00 h 0 lux 3,7 C 3,3 C
29.03.2006 20:00 6,9 C 7,4 C 81 % 1012 hPa 0,0 l/m 0,7 m/s (1 Bft) W 0,00 h 0 lux 3,8 C 6,7 C
29.03.2006 21:00 6,8 C 7,2 C 85 % 1012 hPa 0,0 l/m 0,0 m/s (0 Bft) N 0,00 h 0 lux 4,4 C 6,8 C
29.03.2006 22:00 6,1 C 6,8 C 88 % 1012 hPa 0,0 l/m 0,0 m/s (0 Bft) N 0,00 h 0 lux 4,3 C 6,1 C
29.03.2006 23:00 4,4 C 5,2 C 92 % 1013 hPa 0,0 l/m 0,1 m/s (0 Bft) S-SW 0,00 h 0 lux 3,2 C 4,4 C
30.03.2006 00:00 3,4 C 4,0 C 95 % 1012 hPa 0,0 l/m 0,2 m/s (0 Bft) W 0,00 h 0 lux 2,7 C 3,4 C
30.03.2006 01:00 3,6 C 4,1 C 95 % 1012 hPa 0,0 l/m 0,0 m/s (0 Bft) N 0,00 h 0 lux 2,9 C 3,6 C
30.03.2006 02:00 4,1 C 4,4 C 95 % 1012 hPa 0,0 l/m 0,0 m/s (0 Bft) N 0,00 h 0 lux 3,4 C 4,1 C
30.03.2006 03:00 3,8 C 4,1 C 95 % 1011 hPa 0,0 l/m 0,2 m/s (0 Bft) O 0,00 h 0 lux 3,1 C 3,8 C
30.03.2006 04:00 4,6 C 4,2 C 95 % 1010 hPa 0,0 l/m 1,0 m/s (1 Bft) O 0,00 h 0 lux 3,8 C 4,4 C
30.03.2006 05:00 5,3 C 4,9 C 88 % 1009 hPa 0,0 l/m 1,3 m/s (1 Bft) O 0,00 h 0 lux 3,4 C 5,3 C
30.03.2006 06:00 6,0 C 5,7 C 85 % 1008 hPa 0,4 l/m 2,0 m/s (2 Bft) SO 0,00 h 0 lux 3,7 C 5,0 C
30.03.2006 07:00 6,7 C 6,4 C 88 % 1007 hPa 1,1 l/m 2,7 m/s (2 Bft) SO 0,00 h 0 lux 4,8 C 4,2 C
30.03.2006 08:00 7,1 C 6,8 C 90 % 1006 hPa 2,9 l/m 3,4 m/s (3 Bft) SO 0,00 h 0 lux 5,5 C 3,1 C
30.03.2006 09:00 7,5 C 7,1 C 91 % 1006 hPa 2,5 l/m 3,3 m/s (2 Bft) SW 0,00 h 0 lux 6,0 C 3,7 C
30.03.2006 10:00 7,6 C 7,3 C 90 % 1005 hPa 0,4 l/m 6,0 m/s (4 Bft) SW 0,00 h 0 lux 6,0 C -0,2 C
30.03.2006 11:00 8,3 C 7,8 C 90 % 1005 hPa 0,4 l/m 6,2 m/s (4 Bft) SW 0,00 h 0 lux 6,7 C 0,5 C
30.03.2006 12:00 9,3 C 8,8 C 89 % 1005 hPa 0,0 l/m 5,7 m/s (4 Bft) SW 0,00 h 0 lux 7,5 C 2,3 C
30.03.2006 13:00 11,9 C 12,0 C 75 % 1005 hPa 0,0 l/m 6,8 m/s (4 Bft) SW 0,00 h 0 lux 7,6 C 4,6 C
30.03.2006 14:00 13,2 C 13,8 C 66 % 1005 hPa 0,0 l/m 6,9 m/s (4 Bft) SW 0,00 h 0 lux 7,0 C 6,3 C
30.03.2006 15:00 13,6 C 14,6 C 62 % 1005 hPa 0,0 l/m 7,6 m/s (4 Bft) W-SW 0,00 h 0 lux 6,5 C 6,3 C
30.03.2006 16:00 13,6 C 14,0 C 61 % 1005 hPa 0,0 l/m 7,0 m/s (4 Bft) W-SW 0,00 h 0 lux 6,2 C 6,7 C
30.03.2006 17:00 13,5 C 13,7 C 62 % 1005 hPa 0,0 l/m 5,3 m/s (3 Bft) W-SW 0,00 h 0 lux 6,3 C 8,1 C
30.03.2006 18:00 13,0 C 13,3 C 66 % 1004 hPa 0,0 l/m 5,2 m/s (3 Bft) SW 0,00 h 0 lux 6,8 C 7,7 C
30.03.2006 19:00 12,1 C 12,4 C 76 % 1004 hPa 0,7 l/m 3,9 m/s (3 Bft) W-SW 0,00 h 0 lux 8,0 C 8,1 C
30.03.2006 20:00 11,4 C 11,3 C 84 % 1004 hPa 1,4 l/m 3,3 m/s (2 Bft) SW 0,00 h 0 lux 8,7 C 8,3 C
30.03.2006 21:00 11,0 C 10,7 C 88 % 1004 hPa 0,7 l/m 3,4 m/s (3 Bft) S-SW 0,00 h 0 lux 9,0 C 7,4 C
30.03.2006 22:00 10,7 C 10,5 C 89 % 1003 hPa 2,5 l/m 3,3 m/s (2 Bft) SW 0,00 h 0 lux 9,0 C 7,3 C
30.03.2006 23:00 10,5 C 10,3 C 91 % 1003 hPa 6,8 l/m 1,2 m/s (1 Bft) W-SW 0,00 h 0 lux 9,0 C 10,2 C
31.03.2006 00:00 10,3 C 10,2 C 92 % 1003 hPa 0,0 l/m 0,0 m/s (0 Bft) N 0,00 h 0 lux 9,0 C 10,3 C
31.03.2006 01:00 10,6 C 10,4 C 91 % 1003 hPa 0,0 l/m 3,6 m/s (3 Bft) W 0,00 h 0 lux 9,2 C 6,9 C
31.03.2006 02:00 10,0 C 10,1 C 84 % 1004 hPa 0,0 l/m 4,8 m/s (3 Bft) W-SW 0,00 h 0 lux 7,4 C 4,5 C
31.03.2006 03:00 9,7 C 9,6 C 87 % 1004 hPa 0,7 l/m 2,7 m/s (2 Bft) W-SW 0,00 h 0 lux 7,6 C 7,5 C
31.03.2006 04:00 9,8 C 9,7 C 88 % 1004 hPa 0,4 l/m 2,9 m/s (2 Bft) W-SW 0,00 h 0 lux 7,9 C 7,3 C
31.03.2006 05:00 9,7 C 9,6 C 86 % 1004 hPa 1,8 l/m 4,7 m/s (3 Bft) W-SW 0,00 h 0 lux 7,5 C 4,6 C
31.03.2006 06:00 8,8 C 9,0 C 83 % 1005 hPa 2,2 l/m 6,2 m/s (4 Bft) W 0,00 h 0 lux 6,1 C 1,2 C
31.03.2006 07:00 8,6 C 8,7 C 84 % 1006 hPa 1,1 l/m 4,6 m/s (3 Bft) W-SW 0,00 h 0 lux 6,0 C 2,9 C
31.03.2006 08:00 9,1 C 8,8 C 82 % 1006 hPa 0,4 l/m 4,1 m/s (3 Bft) W-SW 0,00 h 0 lux 6,2 C 4,3 C
31.03.2006 09:00 9,8 C 9,7 C 75 % 1006 hPa 0,4 l/m 7,0 m/s (4 Bft) W-SW 0,00 h 0 lux 5,5 C 1,7 C
31.03.2006 10:00 9,8 C 9,9 C 78 % 1007 hPa 0,4 l/m 6,8 m/s (4 Bft) W-SW 0,00 h 0 lux 6,0 C 1,8 C
31.03.2006 11:00 10,8 C 11,1 C 74 % 1007 hPa 0,4 l/m 6,7 m/s (4 Bft) W-SW 0,00 h 0 lux 6,3 C 3,3 C
31.03.2006 12:00 11,3 C 12,0 C 69 % 1008 hPa 1,1 l/m 7,8 m/s (4 Bft) W-SW 0,00 h 0 lux 5,8 C 3,1 C
31.03.2006 13:00 11,4 C 13,0 C 71 % 1008 hPa 0,4 l/m 8,1 m/s (5 Bft) W-SW 0,00 h 0 lux 6,4 C 3,0 C
31.03.2006 14:00 13,0 C 15,8 C 62 % 1008 hPa 0,0 l/m 8,6 m/s (5 Bft) W-SW 0,00 h 0 lux 5,9 C 4,8 C
31.03.2006 15:00 12,9 C 15,0 C 61 % 1009 hPa 0,0 l/m 8,6 m/s (5 Bft) W-SW 0,00 h 0 lux 5,6 C 4,7 C
31.03.2006 16:00 13,0 C 15,6 C 59 % 1009 hPa 0,7 l/m 9,5 m/s (5 Bft) W 0,00 h 0 lux 5,0 C 4,2 C
31.03.2006 17:00 11,2 C 12,9 C 73 % 1009 hPa 0,4 l/m 6,1 m/s (4 Bft) W 0,00 h 0 lux 6,4 C 4,3 C
31.03.2006 18:00 11,2 C 13,2 C 71 % 1010 hPa 0,7 l/m 5,5 m/s (3 Bft) W 0,00 h 0 lux 6,1 C 5,1 C
31.03.2006 19:00 9,7 C 10,6 C 81 % 1010 hPa 1,1 l/m 4,3 m/s (3 Bft) W 0,00 h 0 lux 6,6 C 4,8 C
31.03.2006 20:00 9,0 C 9,5 C 86 % 1011 hPa 0,0 l/m 2,3 m/s (2 Bft) W-SW 0,00 h 0 lux 6,8 C 7,6 C
31.03.2006 21:00 9,0 C 9,1 C 86 % 1011 hPa 0,0 l/m 2,4 m/s (2 Bft) W 0,00 h 0 lux 6,8 C 7,3 C
31.03.2006 22:00 9,4 C 9,4 C 81 % 1012 hPa 0,0 l/m 2,2 m/s (2 Bft) W 0,00 h 0 lux 6,4 C 7,4 C
31.03.2006 23:00 9,4 C 9,3 C 80 % 1012 hPa 0,0 l/m 3,3 m/s (2 Bft) W 0,00 h 0 lux 6,1 C 5,9 C
01.04.2006 00:00 8,8 C 9,1 C 80 % 1012 hPa 0,0 l/m 2,0 m/s (2 Bft) W-SW 0,00 h 0 lux 5,6 C 7,1 C
01.04.2006 01:00 8,3 C 8,7 C 85 % 1012 hPa 0,0 l/m 0,0 m/s (0 Bft) W-NW 0,00 h 0 lux 5,9 C 8,3 C
01.04.2006 02:00 8,3 C 8,6 C 88 % 1012 hPa 0,0 l/m 0,2 m/s (0 Bft) SW 0,00 h 0 lux 6,4 C 8,3 C
01.04.2006 03:00 8,0 C 8,2 C 89 % 1012 hPa 0,0 l/m 0,0 m/s (0 Bft) N 0,00 h 0 lux 6,3 C 8,0 C
01.04.2006 04:00 7,9 C 8,1 C 90 % 1011 hPa 0,0 l/m 0,2 m/s (0 Bft) O-NO 0,00 h 0 lux 6,5 C 7,9 C
01.04.2006 05:00 7,5 C 7,6 C 91 % 1011 hPa 0,4 l/m 0,4 m/s (1 Bft) O-NO 0,00 h 0 lux 6,1 C 7,5 C
01.04.2006 06:00 7,1 C 7,3 C 92 % 1011 hPa 0,0 l/m 0,2 m/s (0 Bft) O-NO 0,00 h 0 lux 5,9 C 7,1 C
01.04.2006 07:00 6,8 C 7,0 C 94 % 1011 hPa 0,0 l/m 0,9 m/s (1 Bft) W-NW 0,00 h 0 lux 5,9 C 6,3 C
01.04.2006 08:00 7,9 C 7,7 C 93 % 1011 hPa 0,0 l/m 0,6 m/s (1 Bft) NW 0,00 h 0 lux 6,8 C 7,8 C
01.04.2006 09:00 9,3 C 9,1 C 80 % 1011 hPa 0,0 l/m 3,9 m/s (3 Bft) SW 0,00 h 0 lux 5,9 C 4,7 C
01.04.2006 10:00 9,3 C 9,3 C 82 % 1011 hPa 1,4 l/m 2,5 m/s (2 Bft) SW 0,00 h 0 lux 6,4 C 7,1 C
01.04.2006 11:00 10,7 C 11,0 C 78 % 1011 hPa 0,0 l/m 5,3 m/s (3 Bft) SW 0,00 h 0 lux 7,0 C 4,7 C
01.04.2006 12:00 10,8 C 11,1 C 74 % 1010 hPa 0,0 l/m 6,2 m/s (4 Bft) SW 0,00 h 0 lux 6,3 C 3,6 C
01.04.2006 13:00 12,3 C 13,3 C 65 % 1010 hPa 0,0 l/m 6,8 m/s (4 Bft) SW 0,00 h 0 lux 5,9 C 5,2 C
01.04.2006 14:00 12,8 C 14,1 C 59 % 1010 hPa 0,0 l/m 6,8 m/s (4 Bft) SW 0,00 h 0 lux 4,9 C 5,7 C
01.04.2006 15:00 12,9 C 13,7 C 56 % 1010 hPa 0,0 l/m 8,0 m/s (4 Bft) SW 0,00 h 0 lux 4,4 C 5,0 C
01.04.2006 16:00 13,2 C 14,6 C 54 % 1009 hPa 0,0 l/m 8,1 m/s (5 Bft) W-SW 0,00 h 0 lux 4,1 C 5,4 C
01.04.2006 17:00 13,7 C 15,6 C 51 % 1009 hPa 0,0 l/m 7,1 m/s (4 Bft) W-SW 0,00 h 0 lux 3,7 C 6,8 C
01.04.2006 18:00 11,1 C 13,2 C 65 % 1010 hPa 3,2 l/m 5,0 m/s (3 Bft) W-SW 0,00 h 0 lux 4,4 C 6,3 C
01.04.2006 19:00 9,2 C 10,3 C 86 % 1010 hPa 0,0 l/m 0,3 m/s (0 Bft) SW 0,00 h 0 lux 6,9 C 9,2 C
01.04.2006 20:00 7,8 C 8,8 C 90 % 1010 hPa 0,0 l/m 0,0 m/s (0 Bft) W-NW 0,00 h 0 lux 6,2 C 7,8 C
01.04.2006 21:00 6,3 C 7,2 C 94 % 1011 hPa 0,0 l/m 0,1 m/s (0 Bft) N-NW 0,00 h 0 lux 5,3 C 6,3 C
01.04.2006 22:00 5,1 C 5,8 C 95 % 1011 hPa 0,0 l/m 0,0 m/s (0 Bft) N 0,00 h 0 lux 4,3 C 5,1 C
01.04.2006 23:00 4,4 C 5,1 C 95 % 1012 hPa 0,0 l/m 0,0 m/s (0 Bft) N 0,00 h 0 lux 3,7 C 4,4 C
02.04.2006 00:00 3,7 C 4,4 C 95 % 1012 hPa 0,0 l/m 0,0 m/s (0 Bft) N 0,00 h 0 lux 3,0 C 3,7 C
02.04.2006 01:00 4,1 C 4,6 C 95 % 1012 hPa 0,0 l/m 0,0 m/s (0 Bft) N 0,00 h 0 lux 3,4 C 4,1 C
02.04.2006 02:00 3,3 C 4,1 C 95 % 1012 hPa 0,0 l/m 0,0 m/s (0 Bft) N 0,00 h 0 lux 2,6 C 3,3 C
02.04.2006 03:00 2,7 C 3,5 C 95 % 1012 hPa 0,0 l/m 0,0 m/s (0 Bft) N 0,00 h 0 lux 2,0 C 2,7 C
02.04.2006 04:00 1,8 C 2,7 C 95 % 1012 hPa 0,4 l/m 0,0 m/s (0 Bft) N 0,00 h 0 lux 1,1 C 1,8 C
02.04.2006 05:00 2,0 C 2,4 C 95 % 1012 hPa 0,0 l/m 0,0 m/s (0 Bft) N 0,00 h 0 lux 1,3 C 2,0 C
02.04.2006 06:00 3,1 C 3,1 C 95 % 1012 hPa 0,0 l/m 0,2 m/s (0 Bft) O 0,00 h 0 lux 2,4 C 3,1 C
02.04.2006 07:00 4,4 C 4,4 C 95 % 1012 hPa 0,0 l/m 0,0 m/s (0 Bft) N 0,00 h 0 lux 3,7 C 4,4 C
02.04.2006 08:00 5,7 C 5,3 C 95 % 1011 hPa 0,0 l/m 0,2 m/s (0 Bft) NO 0,00 h 0 lux 4,9 C 5,7 C
02.04.2006 09:00 7,9 C 7,5 C 95 % 1011 hPa 0,0 l/m 0,7 m/s (1 Bft) O 0,00 h 0 lux 7,1 C 7,8 C
02.04.2006 10:00 9,5 C 9,6 C 89 % 1010 hPa 0,0 l/m 2,8 m/s (2 Bft) SW 0,00 h 0 lux 7,7 C 6,9 C
02.04.2006 11:00 11,6 C 12,1 C 72 % 1010 hPa 0,0 l/m 4,4 m/s (3 Bft) SW 0,00 h 0 lux 6,6 C 6,8 C
02.04.2006 12:00 11,6 C 12,5 C 66 % 1010 hPa 0,0 l/m 4,2 m/s (3 Bft) S 0,00 h 0 lux 5,5 C 7,2 C
02.04.2006 13:00 11,6 C 12,0 C 65 % 1010 hPa 0,0 l/m 5,9 m/s (4 Bft) SW 0,00 h 0 lux 5,3 C 5,1 C
02.04.2006 14:00 10,6 C 10,3 C 73 % 1009 hPa 0,7 l/m 6,0 m/s (4 Bft) SW 0,00 h 0 lux 6,0 C 3,7 C
02.04.2006 15:00 10,1 C 9,8 C 78 % 1009 hPa 0,4 l/m 5,7 m/s (4 Bft) SW 0,00 h 0 lux 6,5 C 3,4 C
02.04.2006 16:00 10,0 C 9,8 C 82 % 1009 hPa 0,4 l/m 4,5 m/s (3 Bft) W-SW 0,00 h 0 lux 7,1 C 4,8 C
02.04.2006 17:00 9,8 C 10,0 C 83 % 1009 hPa 2,9 l/m 4,5 m/s (3 Bft) W 0,00 h 0 lux 7,1 C 5,0 C
02.04.2006 18:00 10,5 C 14,5 C 72 % 1009 hPa 0,0 l/m 6,1 m/s (4 Bft) W 0,00 h 0 lux 5,7 C 3,4 C
02.04.2006 19:00 9,7 C 11,7 C 59 % 1010 hPa 0,0 l/m 5,2 m/s (3 Bft) W 0,00 h 0 lux 2,1 C 3,4 C
02.04.2006 20:00 7,7 C 8,5 C 59 % 1010 hPa 0,0 l/m 2,3 m/s (2 Bft) W 0,00 h 0 lux 0,3 C 5,2 C
02.04.2006 21:00 4,4 C 5,9 C 81 % 1010 hPa 0,0 l/m 0,0 m/s (0 Bft) N 0,00 h 0 lux 1,5 C 4,4 C
02.04.2006 22:00 4,4 C 5,1 C 91 % 1010 hPa 0,0 l/m 0,0 m/s (0 Bft) N 0,00 h 0 lux 3,0 C 4,4 C
02.04.2006 23:00 4,1 C 4,7 C 92 % 1011 hPa 0,0 l/m 0,0 m/s (0 Bft) N 0,00 h 0 lux 2,9 C 4,1 C
Min-Datum _ 02.04.06 02.04.06 28.03.06 28.03.06 - 27.03.06 - - - 28.03.06 29.03.06
_ Min-Zeit 04:40 05:10 14:20 17:55 - 00:00 - - - 15:30 18:55
Minimum _ 1,4 C 2,1 C 32 % 1002 hPa - 0,0 m/s (0 Bft) - - - -3,3 C -3,8 C
Max-Datum _ 27.03.06 27.03.06 27.03.06 29.03.06 30.03.06 29.03.06 - 27.03.06 27.03.06 27.03.06 27.03.06
_ Max-Zeit 13:20 13:20 03:55 22:50 23:50 15:20 - 00:00 00:00 10:50 11:15
Maximum _ 17,3 C 21,2 C 95 % 1013 hPa 6,8 l/m 13,4 m/s
W (6 Bft)
- 0,00 h 0,000 klux 13,0 C 15,0 C
Durchschnitt _ 9,3 C 9,9 C 77 % 1008 hPa #49,3 l/m 3,5 m/s (3 Bft) W-SW #0 min. 0,000 klux 5,0 C 5,7 C